sensor_id;sensor_type;location;lat;lon;timestamp;P1;durP1;ratioP1;P2;durP2;ratioP2
8293;SDS011;4185;41.506;24.938;2022-07-06T00:00:04;8.43;;;7.53;;
8293;SDS011;4185;41.506;24.938;2022-07-06T00:02:32;9.00;;;7.83;;
8293;SDS011;4185;41.506;24.938;2022-07-06T00:04:59;9.23;;;8.10;;
8293;SDS011;4185;41.506;24.938;2022-07-06T00:07:27;10.17;;;8.47;;
8293;SDS011;4185;41.506;24.938;2022-07-06T00:09:55;9.90;;;8.47;;
8293;SDS011;4185;41.506;24.938;2022-07-06T00:12:23;8.73;;;7.80;;
8293;SDS011;4185;41.506;24.938;2022-07-06T00:14:50;8.40;;;7.70;;
8293;SDS011;4185;41.506;24.938;2022-07-06T00:17:17;8.70;;;7.90;;
8293;SDS011;4185;41.506;24.938;2022-07-06T00:19:43;8.17;;;7.37;;
8293;SDS011;4185;41.506;24.938;2022-07-06T00:22:10;8.97;;;7.90;;
8293;SDS011;4185;41.506;24.938;2022-07-06T00:24:38;9.40;;;8.50;;
8293;SDS011;4185;41.506;24.938;2022-07-06T00:27:05;9.50;;;7.87;;
8293;SDS011;4185;41.506;24.938;2022-07-06T00:29:32;9.70;;;8.80;;
8293;SDS011;4185;41.506;24.938;2022-07-06T00:31:59;9.67;;;8.17;;
8293;SDS011;4185;41.506;24.938;2022-07-06T00:34:26;8.67;;;7.83;;
8293;SDS011;4185;41.506;24.938;2022-07-06T00:36:53;9.00;;;8.20;;
8293;SDS011;4185;41.506;24.938;2022-07-06T00:39:20;9.47;;;8.10;;
8293;SDS011;4185;41.506;24.938;2022-07-06T00:41:48;8.90;;;8.00;;
8293;SDS011;4185;41.506;24.938;2022-07-06T00:44:15;8.50;;;7.60;;
8293;SDS011;4185;41.506;24.938;2022-07-06T00:46:42;9.53;;;8.47;;
8293;SDS011;4185;41.506;24.938;2022-07-06T00:49:08;10.50;;;8.30;;
8293;SDS011;4185;41.506;24.938;2022-07-06T00:51:56;9.23;;;8.30;;
8293;SDS011;4185;41.506;24.938;2022-07-06T00:54:24;10.37;;;7.90;;
8293;SDS011;4185;41.506;24.938;2022-07-06T00:56:52;8.97;;;8.17;;
8293;SDS011;4185;41.506;24.938;2022-07-06T00:59:19;8.67;;;7.80;;
8293;SDS011;4185;41.506;24.938;2022-07-06T01:01:46;9.07;;;8.03;;
8293;SDS011;4185;41.506;24.938;2022-07-06T01:04:13;9.37;;;8.37;;
8293;SDS011;4185;41.506;24.938;2022-07-06T01:06:40;9.20;;;8.23;;
8293;SDS011;4185;41.506;24.938;2022-07-06T01:09:07;9.70;;;8.80;;
8293;SDS011;4185;41.506;24.938;2022-07-06T01:11:34;9.30;;;8.50;;
8293;SDS011;4185;41.506;24.938;2022-07-06T01:14:02;9.33;;;8.37;;
8293;SDS011;4185;41.506;24.938;2022-07-06T01:16:29;9.93;;;8.93;;
8293;SDS011;4185;41.506;24.938;2022-07-06T01:18:56;10.63;;;8.03;;
8293;SDS011;4185;41.506;24.938;2022-07-06T01:21:25;9.90;;;9.00;;
8293;SDS011;4185;41.506;24.938;2022-07-06T01:23:52;10.50;;;8.13;;
8293;SDS011;4185;41.506;24.938;2022-07-06T01:26:20;9.73;;;8.73;;
8293;SDS011;4185;41.506;24.938;2022-07-06T01:28:47;9.63;;;8.63;;
8293;SDS011;4185;41.506;24.938;2022-07-06T01:31:17;10.33;;;8.87;;
8293;SDS011;4185;41.506;24.938;2022-07-06T01:33:45;9.77;;;8.50;;
8293;SDS011;4185;41.506;24.938;2022-07-06T01:36:12;9.93;;;8.93;;
8293;SDS011;4185;41.506;24.938;2022-07-06T01:38:47;9.57;;;8.67;;
8293;SDS011;4185;41.506;24.938;2022-07-06T01:41:15;9.60;;;8.60;;
8293;SDS011;4185;41.506;24.938;2022-07-06T01:43:42;11.00;;;8.83;;
8293;SDS011;4185;41.506;24.938;2022-07-06T01:46:09;9.83;;;8.93;;
8293;SDS011;4185;41.506;24.938;2022-07-06T01:48:36;9.50;;;8.60;;
8293;SDS011;4185;41.506;24.938;2022-07-06T01:51:03;11.03;;;9.47;;
8293;SDS011;4185;41.506;24.938;2022-07-06T01:53:31;10.53;;;9.20;;
8293;SDS011;4185;41.506;24.938;2022-07-06T01:55:59;9.17;;;8.33;;
8293;SDS011;4185;41.506;24.938;2022-07-06T01:58:26;10.00;;;9.00;;
8293;SDS011;4185;41.506;24.938;2022-07-06T02:00:53;9.80;;;8.90;;
8293;SDS011;4185;41.506;24.938;2022-07-06T02:03:20;10.83;;;8.80;;
8293;SDS011;4185;41.506;24.938;2022-07-06T02:05:47;8.63;;;7.50;;
8293;SDS011;4185;41.506;24.938;2022-07-06T02:08:14;10.27;;;9.27;;
8293;SDS011;4185;41.506;24.938;2022-07-06T02:10:41;9.40;;;8.50;;
8293;SDS011;4185;41.506;24.938;2022-07-06T02:13:09;9.57;;;8.50;;
8293;SDS011;4185;41.506;24.938;2022-07-06T02:15:36;9.57;;;8.67;;
8293;SDS011;4185;41.506;24.938;2022-07-06T02:18:02;9.17;;;8.27;;
8293;SDS011;4185;41.506;24.938;2022-07-06T02:20:29;9.07;;;7.80;;
8293;SDS011;4185;41.506;24.938;2022-07-06T02:22:56;9.10;;;8.20;;
8293;SDS011;4185;41.506;24.938;2022-07-06T02:25:23;9.57;;;8.57;;
8293;SDS011;4185;41.506;24.938;2022-07-06T02:27:50;9.37;;;8.27;;
8293;SDS011;4185;41.506;24.938;2022-07-06T02:30:18;9.40;;;8.50;;
8293;SDS011;4185;41.506;24.938;2022-07-06T02:32:45;10.00;;;7.60;;
8293;SDS011;4185;41.506;24.938;2022-07-06T02:35:12;9.00;;;8.10;;
8293;SDS011;4185;41.506;24.938;2022-07-06T02:37:39;8.87;;;8.07;;
8293;SDS011;4185;41.506;24.938;2022-07-06T02:40:07;9.87;;;8.47;;
8293;SDS011;4185;41.506;24.938;2022-07-06T02:42:34;11.63;;;8.47;;
8293;SDS011;4185;41.506;24.938;2022-07-06T02:45:02;9.63;;;8.73;;
8293;SDS011;4185;41.506;24.938;2022-07-06T02:47:30;9.37;;;8.27;;
8293;SDS011;4185;41.506;24.938;2022-07-06T02:49:57;10.40;;;7.70;;
8293;SDS011;4185;41.506;24.938;2022-07-06T02:52:24;9.07;;;8.27;;
8293;SDS011;4185;41.506;24.938;2022-07-06T02:54:51;9.60;;;8.63;;
8293;SDS011;4185;41.506;24.938;2022-07-06T02:57:18;9.60;;;8.60;;
8293;SDS011;4185;41.506;24.938;2022-07-06T02:59:45;8.97;;;8.07;;
8293;SDS011;4185;41.506;24.938;2022-07-06T03:02:14;9.10;;;8.20;;
8293;SDS011;4185;41.506;24.938;2022-07-06T03:04:43;9.27;;;8.37;;
8293;SDS011;4185;41.506;24.938;2022-07-06T03:07:10;10.20;;;8.60;;
8293;SDS011;4185;41.506;24.938;2022-07-06T03:09:36;10.57;;;8.73;;
8293;SDS011;4185;41.506;24.938;2022-07-06T03:12:04;10.10;;;8.50;;
8293;SDS011;4185;41.506;24.938;2022-07-06T03:14:31;9.40;;;8.40;;
8293;SDS011;4185;41.506;24.938;2022-07-06T03:16:58;10.37;;;8.93;;
8293;SDS011;4185;41.506;24.938;2022-07-06T03:19:25;10.90;;;8.80;;
8293;SDS011;4185;41.506;24.938;2022-07-06T03:21:53;10.00;;;8.97;;
8293;SDS011;4185;41.506;24.938;2022-07-06T03:24:20;10.33;;;8.70;;
8293;SDS011;4185;41.506;24.938;2022-07-06T03:26:47;9.93;;;9.00;;
8293;SDS011;4185;41.506;24.938;2022-07-06T03:29:13;14.00;;;9.47;;
8293;SDS011;4185;41.506;24.938;2022-07-06T03:31:40;10.50;;;9.07;;
8293;SDS011;4185;41.506;24.938;2022-07-06T03:34:07;9.93;;;8.37;;
8293;SDS011;4185;41.506;24.938;2022-07-06T03:36:34;9.67;;;8.77;;
8293;SDS011;4185;41.506;24.938;2022-07-06T03:39:02;10.20;;;9.20;;
8293;SDS011;4185;41.506;24.938;2022-07-06T03:41:29;9.77;;;8.83;;
8293;SDS011;4185;41.506;24.938;2022-07-06T03:43:57;10.03;;;9.13;;
8293;SDS011;4185;41.506;24.938;2022-07-06T03:46:24;9.83;;;8.83;;
8293;SDS011;4185;41.506;24.938;2022-07-06T03:48:51;9.37;;;8.40;;
8293;SDS011;4185;41.506;24.938;2022-07-06T03:51:18;10.63;;;8.90;;
8293;SDS011;4185;41.506;24.938;2022-07-06T03:53:45;12.00;;;9.30;;
8293;SDS011;4185;41.506;24.938;2022-07-06T03:56:13;12.30;;;9.00;;
8293;SDS011;4185;41.506;24.938;2022-07-06T03:58:57;10.60;;;9.60;;
8293;SDS011;4185;41.506;24.938;2022-07-06T04:01:25;10.37;;;9.33;;
8293;SDS011;4185;41.506;24.938;2022-07-06T04:03:52;10.13;;;9.13;;
8293;SDS011;4185;41.506;24.938;2022-07-06T04:06:19;9.53;;;8.53;;
8293;SDS011;4185;41.506;24.938;2022-07-06T04:08:46;13.13;;;9.87;;
8293;SDS011;4185;41.506;24.938;2022-07-06T04:11:14;10.20;;;9.07;;
8293;SDS011;4185;41.506;24.938;2022-07-06T04:13:41;10.47;;;9.47;;
8293;SDS011;4185;41.506;24.938;2022-07-06T04:16:08;11.30;;;10.20;;
8293;SDS011;4185;41.506;24.938;2022-07-06T04:18:35;11.23;;;9.27;;
8293;SDS011;4185;41.506;24.938;2022-07-06T04:21:02;12.93;;;9.37;;
8293;SDS011;4185;41.506;24.938;2022-07-06T04:23:29;12.83;;;9.17;;
8293;SDS011;4185;41.506;24.938;2022-07-06T04:25:56;9.80;;;8.80;;
8293;SDS011;4185;41.506;24.938;2022-07-06T04:28:24;11.80;;;9.47;;
8293;SDS011;4185;41.506;24.938;2022-07-06T04:30:51;17.03;;;10.37;;
8293;SDS011;4185;41.506;24.938;2022-07-06T04:33:18;12.73;;;10.20;;
8293;SDS011;4185;41.506;24.938;2022-07-06T04:35:45;15.80;;;9.47;;
8293;SDS011;4185;41.506;24.938;2022-07-06T04:38:12;15.77;;;10.27;;
8293;SDS011;4185;41.506;24.938;2022-07-06T04:40:39;12.43;;;10.53;;
8293;SDS011;4185;41.506;24.938;2022-07-06T04:43:06;11.23;;;9.60;;
8293;SDS011;4185;41.506;24.938;2022-07-06T04:45:34;12.37;;;10.23;;
8293;SDS011;4185;41.506;24.938;2022-07-06T04:48:01;10.90;;;9.60;;
8293;SDS011;4185;41.506;24.938;2022-07-06T04:50:28;11.20;;;10.03;;
8293;SDS011;4185;41.506;24.938;2022-07-06T04:52:55;13.80;;;10.80;;
8293;SDS011;4185;41.506;24.938;2022-07-06T04:55:22;11.57;;;10.37;;
8293;SDS011;4185;41.506;24.938;2022-07-06T04:57:49;12.50;;;10.23;;
8293;SDS011;4185;41.506;24.938;2022-07-06T05:00:16;10.93;;;9.83;;
8293;SDS011;4185;41.506;24.938;2022-07-06T05:02:45;12.60;;;10.60;;
8293;SDS011;4185;41.506;24.938;2022-07-06T05:05:12;13.97;;;10.93;;
8293;SDS011;4185;41.506;24.938;2022-07-06T05:07:39;14.87;;;10.90;;
8293;SDS011;4185;41.506;24.938;2022-07-06T05:10:07;12.57;;;10.77;;
8293;SDS011;4185;41.506;24.938;2022-07-06T05:12:35;13.57;;;10.70;;
8293;SDS011;4185;41.506;24.938;2022-07-06T05:15:02;12.93;;;11.20;;
8293;SDS011;4185;41.506;24.938;2022-07-06T05:17:29;11.93;;;10.73;;
8293;SDS011;4185;41.506;24.938;2022-07-06T05:19:58;12.27;;;10.50;;
8293;SDS011;4185;41.506;24.938;2022-07-06T05:22:25;12.90;;;11.47;;
8293;SDS011;4185;41.506;24.938;2022-07-06T05:24:52;13.93;;;11.37;;
8293;SDS011;4185;41.506;24.938;2022-07-06T05:27:19;13.67;;;10.90;;
8293;SDS011;4185;41.506;24.938;2022-07-06T05:29:46;15.13;;;11.40;;
8293;SDS011;4185;41.506;24.938;2022-07-06T05:32:13;12.63;;;11.33;;
8293;SDS011;4185;41.506;24.938;2022-07-06T05:34:40;13.07;;;11.77;;
8293;SDS011;4185;41.506;24.938;2022-07-06T05:37:08;19.07;;;11.80;;
8293;SDS011;4185;41.506;24.938;2022-07-06T05:39:35;13.10;;;11.70;;
8293;SDS011;4185;41.506;24.938;2022-07-06T05:42:03;13.33;;;11.53;;
8293;SDS011;4185;41.506;24.938;2022-07-06T05:44:31;13.27;;;11.73;;
8293;SDS011;4185;41.506;24.938;2022-07-06T05:46:58;13.17;;;10.97;;
8293;SDS011;4185;41.506;24.938;2022-07-06T05:49:38;13.70;;;11.13;;
8293;SDS011;4185;41.506;24.938;2022-07-06T05:52:23;13.23;;;11.83;;
8293;SDS011;4185;41.506;24.938;2022-07-06T05:54:50;12.73;;;11.20;;
8293;SDS011;4185;41.506;24.938;2022-07-06T05:57:16;13.10;;;11.00;;
8293;SDS011;4185;41.506;24.938;2022-07-06T05:59:44;15.57;;;10.77;;
8293;SDS011;4185;41.506;24.938;2022-07-06T06:02:11;11.60;;;10.50;;
8293;SDS011;4185;41.506;24.938;2022-07-06T06:04:37;13.43;;;11.30;;
8293;SDS011;4185;41.506;24.938;2022-07-06T06:07:04;12.03;;;10.63;;
8293;SDS011;4185;41.506;24.938;2022-07-06T06:09:33;15.40;;;11.87;;
8293;SDS011;4185;41.506;24.938;2022-07-06T06:11:59;15.30;;;11.30;;
8293;SDS011;4185;41.506;24.938;2022-07-06T06:14:26;13.23;;;11.57;;
8293;SDS011;4185;41.506;24.938;2022-07-06T06:16:53;12.13;;;10.87;;
8293;SDS011;4185;41.506;24.938;2022-07-06T06:19:20;11.97;;;10.60;;
8293;SDS011;4185;41.506;24.938;2022-07-06T06:21:47;12.23;;;10.20;;
8293;SDS011;4185;41.506;24.938;2022-07-06T06:24:14;11.73;;;10.63;;
8293;SDS011;4185;41.506;24.938;2022-07-06T06:26:42;11.77;;;10.37;;
8293;SDS011;4185;41.506;24.938;2022-07-06T06:29:09;14.90;;;10.97;;
8293;SDS011;4185;41.506;24.938;2022-07-06T06:31:36;13.13;;;10.77;;
8293;SDS011;4185;41.506;24.938;2022-07-06T06:34:03;11.73;;;10.13;;
8293;SDS011;4185;41.506;24.938;2022-07-06T06:36:30;10.83;;;9.73;;
8293;SDS011;4185;41.506;24.938;2022-07-06T06:38:57;11.20;;;10.07;;
8293;SDS011;4185;41.506;24.938;2022-07-06T06:41:29;10.47;;;9.47;;
8293;SDS011;4185;41.506;24.938;2022-07-06T06:44:00;10.90;;;9.80;;
8293;SDS011;4185;41.506;24.938;2022-07-06T06:46:29;11.10;;;10.07;;
8293;SDS011;4185;41.506;24.938;2022-07-06T06:48:56;14.00;;;10.57;;
8293;SDS011;4185;41.506;24.938;2022-07-06T06:51:23;16.83;;;11.77;;
8293;SDS011;4185;41.506;24.938;2022-07-06T06:53:50;15.37;;;10.53;;
8293;SDS011;4185;41.506;24.938;2022-07-06T06:56:17;12.83;;;11.57;;
8293;SDS011;4185;41.506;24.938;2022-07-06T06:58:44;19.03;;;11.57;;
8293;SDS011;4185;41.506;24.938;2022-07-06T07:01:12;14.30;;;12.80;;
8293;SDS011;4185;41.506;24.938;2022-07-06T07:03:39;11.53;;;10.43;;
8293;SDS011;4185;41.506;24.938;2022-07-06T07:06:06;14.00;;;11.67;;
8293;SDS011;4185;41.506;24.938;2022-07-06T07:08:33;12.20;;;11.00;;
8293;SDS011;4185;41.506;24.938;2022-07-06T07:11:00;12.30;;;11.17;;
8293;SDS011;4185;41.506;24.938;2022-07-06T07:13:27;12.33;;;11.00;;
8293;SDS011;4185;41.506;24.938;2022-07-06T07:15:54;12.30;;;10.17;;
8293;SDS011;4185;41.506;24.938;2022-07-06T07:18:22;13.30;;;11.17;;
8293;SDS011;4185;41.506;24.938;2022-07-06T07:20:49;11.63;;;10.47;;
8293;SDS011;4185;41.506;24.938;2022-07-06T07:23:15;11.90;;;10.90;;
8293;SDS011;4185;41.506;24.938;2022-07-06T07:25:42;12.40;;;11.13;;
8293;SDS011;4185;41.506;24.938;2022-07-06T07:28:09;12.57;;;11.27;;
8293;SDS011;4185;41.506;24.938;2022-07-06T07:30:36;13.23;;;11.83;;
8293;SDS011;4185;41.506;24.938;2022-07-06T07:33:03;12.10;;;10.83;;
8293;SDS011;4185;41.506;24.938;2022-07-06T07:35:31;12.37;;;11.20;;
8293;SDS011;4185;41.506;24.938;2022-07-06T07:37:58;11.57;;;10.50;;
8293;SDS011;4185;41.506;24.938;2022-07-06T07:40:25;12.77;;;11.03;;
8293;SDS011;4185;41.506;24.938;2022-07-06T07:42:52;13.13;;;11.30;;
8293;SDS011;4185;41.506;24.938;2022-07-06T07:45:19;13.80;;;10.90;;
8293;SDS011;4185;41.506;24.938;2022-07-06T07:47:46;12.37;;;11.07;;
8293;SDS011;4185;41.506;24.938;2022-07-06T07:50:13;17.37;;;10.40;;
8293;SDS011;4185;41.506;24.938;2022-07-06T07:52:41;11.67;;;10.57;;
8293;SDS011;4185;41.506;24.938;2022-07-06T07:55:08;14.10;;;10.57;;
8293;SDS011;4185;41.506;24.938;2022-07-06T07:57:36;12.57;;;11.10;;
8293;SDS011;4185;41.506;24.938;2022-07-06T08:00:03;11.97;;;10.87;;
8293;SDS011;4185;41.506;24.938;2022-07-06T08:02:31;13.20;;;11.30;;
8293;SDS011;4185;41.506;24.938;2022-07-06T08:04:58;12.13;;;10.97;;
8293;SDS011;4185;41.506;24.938;2022-07-06T08:07:25;12.47;;;11.27;;
8293;SDS011;4185;41.506;24.938;2022-07-06T08:09:53;12.10;;;10.90;;
8293;SDS011;4185;41.506;24.938;2022-07-06T08:12:20;12.97;;;11.13;;
8293;SDS011;4185;41.506;24.938;2022-07-06T08:14:47;22.50;;;12.17;;
8293;SDS011;4185;41.506;24.938;2022-07-06T08:17:14;14.40;;;10.93;;
8293;SDS011;4185;41.506;24.938;2022-07-06T08:19:41;12.50;;;11.30;;
8293;SDS011;4185;41.506;24.938;2022-07-06T08:22:08;12.40;;;10.80;;
8293;SDS011;4185;41.506;24.938;2022-07-06T08:24:35;11.50;;;10.50;;
8293;SDS011;4185;41.506;24.938;2022-07-06T08:27:04;12.57;;;10.50;;
8293;SDS011;4185;41.506;24.938;2022-07-06T08:29:31;12.13;;;10.60;;
8293;SDS011;4185;41.506;24.938;2022-07-06T08:31:58;11.83;;;10.07;;
8293;SDS011;4185;41.506;24.938;2022-07-06T08:34:25;11.80;;;10.67;;
8293;SDS011;4185;41.506;24.938;2022-07-06T08:36:54;11.33;;;10.23;;
8293;SDS011;4185;41.506;24.938;2022-07-06T08:39:21;10.30;;;9.30;;
8293;SDS011;4185;41.506;24.938;2022-07-06T08:41:48;15.17;;;9.90;;
8293;SDS011;4185;41.506;24.938;2022-07-06T08:44:18;9.67;;;8.77;;
8293;SDS011;4185;41.506;24.938;2022-07-06T08:46:45;9.60;;;8.70;;
8293;SDS011;4185;41.506;24.938;2022-07-06T08:49:16;8.80;;;8.00;;
8293;SDS011;4185;41.506;24.938;2022-07-06T08:51:44;8.73;;;7.50;;
8293;SDS011;4185;41.506;24.938;2022-07-06T08:54:11;10.17;;;8.27;;
8293;SDS011;4185;41.506;24.938;2022-07-06T08:56:39;12.13;;;8.73;;
8293;SDS011;4185;41.506;24.938;2022-07-06T08:59:06;12.83;;;7.80;;
8293;SDS011;4185;41.506;24.938;2022-07-06T09:01:36;11.20;;;8.00;;
8293;SDS011;4185;41.506;24.938;2022-07-06T09:04:05;8.60;;;7.10;;
8293;SDS011;4185;41.506;24.938;2022-07-06T09:06:33;10.23;;;8.27;;
8293;SDS011;4185;41.506;24.938;2022-07-06T09:09:03;8.80;;;7.87;;
8293;SDS011;4185;41.506;24.938;2022-07-06T09:11:32;8.77;;;7.47;;
8293;SDS011;4185;41.506;24.938;2022-07-06T09:14:00;7.60;;;6.90;;
8293;SDS011;4185;41.506;24.938;2022-07-06T09:16:28;8.33;;;7.57;;
8293;SDS011;4185;41.506;24.938;2022-07-06T09:18:57;8.70;;;7.80;;
8293;SDS011;4185;41.506;24.938;2022-07-06T09:21:25;10.07;;;7.00;;
8293;SDS011;4185;41.506;24.938;2022-07-06T09:23:55;8.60;;;7.07;;
8293;SDS011;4185;41.506;24.938;2022-07-06T09:26:23;9.37;;;7.40;;
8293;SDS011;4185;41.506;24.938;2022-07-06T09:28:51;9.67;;;7.47;;
8293;SDS011;4185;41.506;24.938;2022-07-06T09:31:19;8.03;;;7.23;;
8293;SDS011;4185;41.506;24.938;2022-07-06T09:33:53;8.23;;;7.10;;
8293;SDS011;4185;41.506;24.938;2022-07-06T09:39:15;8.70;;;7.80;;
8293;SDS011;4185;41.506;24.938;2022-07-06T09:41:47;10.93;;;7.90;;
8293;SDS011;4185;41.506;24.938;2022-07-06T09:44:20;9.93;;;7.63;;
8293;SDS011;4185;41.506;24.938;2022-07-06T09:46:48;12.07;;;8.10;;
8293;SDS011;4185;41.506;24.938;2022-07-06T09:49:18;7.83;;;7.13;;
8293;SDS011;4185;41.506;24.938;2022-07-06T09:51:47;8.15;;;7.20;;
8293;SDS011;4185;41.506;24.938;2022-07-06T09:54:16;7.97;;;7.22;;
8293;SDS011;4185;41.506;24.938;2022-07-06T09:56:44;8.18;;;7.38;;
8293;SDS011;4185;41.506;24.938;2022-07-06T09:59:16;8.55;;;7.70;;
8293;SDS011;4185;41.506;24.938;2022-07-06T10:01:44;9.13;;;7.78;;
8293;SDS011;4185;41.506;24.938;2022-07-06T10:04:12;8.77;;;7.88;;
8293;SDS011;4185;41.506;24.938;2022-07-06T10:06:40;10.98;;;8.75;;
8293;SDS011;4185;41.506;24.938;2022-07-06T10:09:09;9.38;;;8.50;;
8293;SDS011;4185;41.506;24.938;2022-07-06T10:11:37;10.48;;;7.85;;
8293;SDS011;4185;41.506;24.938;2022-07-06T10:14:05;9.52;;;8.68;;
8293;SDS011;4185;41.506;24.938;2022-07-06T10:16:33;10.13;;;9.13;;
8293;SDS011;4185;41.506;24.938;2022-07-06T10:19:04;10.13;;;9.23;;
8293;SDS011;4185;41.506;24.938;2022-07-06T10:21:34;12.25;;;9.23;;
8293;SDS011;4185;41.506;24.938;2022-07-06T10:24:03;12.88;;;9.65;;
8293;SDS011;4185;41.506;24.938;2022-07-06T10:26:33;10.30;;;9.20;;
8293;SDS011;4185;41.506;24.938;2022-07-06T10:29:01;10.80;;;9.75;;
8293;SDS011;4185;41.506;24.938;2022-07-06T10:31:29;10.77;;;9.68;;
8293;SDS011;4185;41.506;24.938;2022-07-06T10:33:57;11.68;;;10.02;;
8293;SDS011;4185;41.506;24.938;2022-07-06T10:36:29;14.98;;;9.63;;
8293;SDS011;4185;41.506;24.938;2022-07-06T10:38:56;11.77;;;10.55;;
8293;SDS011;4185;41.506;24.938;2022-07-06T10:41:45;11.55;;;10.35;;
8293;SDS011;4185;41.506;24.938;2022-07-06T10:44:14;10.75;;;9.65;;
8293;SDS011;4185;41.506;24.938;2022-07-06T10:46:42;12.35;;;10.65;;
8293;SDS011;4185;41.506;24.938;2022-07-06T10:49:16;10.65;;;9.60;;
8293;SDS011;4185;41.506;24.938;2022-07-06T10:51:43;13.02;;;9.85;;
8293;SDS011;4185;41.506;24.938;2022-07-06T10:54:10;11.88;;;10.63;;
8293;SDS011;4185;41.506;24.938;2022-07-06T10:56:38;12.48;;;10.43;;
8293;SDS011;4185;41.506;24.938;2022-07-06T10:59:10;11.27;;;9.77;;
8293;SDS011;4185;41.506;24.938;2022-07-06T11:01:38;10.10;;;8.98;;
8293;SDS011;4185;41.506;24.938;2022-07-06T11:04:05;9.57;;;8.45;;
8293;SDS011;4185;41.506;24.938;2022-07-06T11:06:34;10.15;;;8.82;;
8293;SDS011;4185;41.506;24.938;2022-07-06T11:09:03;10.15;;;9.15;;
8293;SDS011;4185;41.506;24.938;2022-07-06T11:11:38;9.63;;;8.77;;
8293;SDS011;4185;41.506;24.938;2022-07-06T11:14:07;10.60;;;8.63;;
8293;SDS011;4185;41.506;24.938;2022-07-06T11:16:37;10.35;;;9.07;;
8293;SDS011;4185;41.506;24.938;2022-07-06T11:19:07;9.90;;;8.85;;
8293;SDS011;4185;41.506;24.938;2022-07-06T11:21:39;12.13;;;9.27;;
8293;SDS011;4185;41.506;24.938;2022-07-06T11:24:10;12.15;;;8.27;;
8293;SDS011;4185;41.506;24.938;2022-07-06T11:26:38;9.18;;;8.27;;
8293;SDS011;4185;41.506;24.938;2022-07-06T11:29:08;8.73;;;7.93;;
8293;SDS011;4185;41.506;24.938;2022-07-06T11:31:37;9.20;;;8.30;;
8293;SDS011;4185;41.506;24.938;2022-07-06T11:34:06;8.52;;;7.72;;
8293;SDS011;4185;41.506;24.938;2022-07-06T11:36:34;8.90;;;8.10;;
8293;SDS011;4185;41.506;24.938;2022-07-06T11:39:01;9.13;;;8.27;;
8293;SDS011;4185;41.506;24.938;2022-07-06T11:41:28;7.95;;;7.18;;
8293;SDS011;4185;41.506;24.938;2022-07-06T11:43:55;8.02;;;7.05;;
8293;SDS011;4185;41.506;24.938;2022-07-06T11:46:24;7.25;;;6.55;;
8293;SDS011;4185;41.506;24.938;2022-07-06T11:48:52;9.80;;;7.63;;
8293;SDS011;4185;41.506;24.938;2022-07-06T11:51:21;8.55;;;7.30;;
8293;SDS011;4185;41.506;24.938;2022-07-06T11:53:49;11.93;;;7.65;;
8293;SDS011;4185;41.506;24.938;2022-07-06T11:56:17;7.78;;;6.95;;
8293;SDS011;4185;41.506;24.938;2022-07-06T11:58:47;9.98;;;7.32;;
8293;SDS011;4185;41.506;24.938;2022-07-06T12:01:15;9.90;;;7.18;;
8293;SDS011;4185;41.506;24.938;2022-07-06T12:03:44;14.10;;;7.78;;
8293;SDS011;4185;41.506;24.938;2022-07-06T12:06:13;8.73;;;7.40;;
8293;SDS011;4185;41.506;24.938;2022-07-06T12:08:42;8.27;;;7.00;;
8293;SDS011;4185;41.506;24.938;2022-07-06T12:11:10;10.77;;;6.97;;
8293;SDS011;4185;41.506;24.938;2022-07-06T12:13:42;8.05;;;7.35;;
8293;SDS011;4185;41.506;24.938;2022-07-06T12:16:10;7.97;;;7.13;;
8293;SDS011;4185;41.506;24.938;2022-07-06T12:18:37;7.93;;;6.75;;
8293;SDS011;4185;41.506;24.938;2022-07-06T12:21:08;7.70;;;6.93;;
8293;SDS011;4185;41.506;24.938;2022-07-06T12:23:39;8.13;;;7.18;;
8293;SDS011;4185;41.506;24.938;2022-07-06T12:26:07;7.55;;;6.82;;
8293;SDS011;4185;41.506;24.938;2022-07-06T12:28:34;7.28;;;6.68;;
8293;SDS011;4185;41.506;24.938;2022-07-06T12:31:01;8.00;;;7.30;;
8293;SDS011;4185;41.506;24.938;2022-07-06T12:33:29;7.60;;;6.93;;
8293;SDS011;4185;41.506;24.938;2022-07-06T12:35:56;7.38;;;6.72;;
8293;SDS011;4185;41.506;24.938;2022-07-06T12:38:25;7.50;;;6.80;;
8293;SDS011;4185;41.506;24.938;2022-07-06T12:40:52;8.35;;;7.30;;
8293;SDS011;4185;41.506;24.938;2022-07-06T12:48:52;7.10;;;6.50;;
8293;SDS011;4185;41.506;24.938;2022-07-06T12:51:19;7.97;;;7.25;;
8293;SDS011;4185;41.506;24.938;2022-07-06T12:53:47;8.95;;;7.00;;
8293;SDS011;4185;41.506;24.938;2022-07-06T12:56:15;8.23;;;7.32;;
8293;SDS011;4185;41.506;24.938;2022-07-06T13:01:24;7.40;;;6.70;;
8293;SDS011;4185;41.506;24.938;2022-07-06T13:03:54;8.13;;;6.85;;
8293;SDS011;4185;41.506;24.938;2022-07-06T13:06:32;7.70;;;7.00;;
8293;SDS011;4185;41.506;24.938;2022-07-06T13:09:01;7.72;;;6.93;;
8293;SDS011;4185;41.506;24.938;2022-07-06T13:11:28;8.90;;;6.93;;
8293;SDS011;4185;41.506;24.938;2022-07-06T13:13:55;7.50;;;6.85;;
8293;SDS011;4185;41.506;24.938;2022-07-06T13:16:22;11.95;;;7.53;;
8293;SDS011;4185;41.506;24.938;2022-07-06T13:18:55;7.70;;;7.00;;
8293;SDS011;4185;41.506;24.938;2022-07-06T13:21:22;9.93;;;7.05;;
8293;SDS011;4185;41.506;24.938;2022-07-06T13:23:49;7.47;;;6.82;;
8293;SDS011;4185;41.506;24.938;2022-07-06T13:26:17;7.55;;;6.78;;
8293;SDS011;4185;41.506;24.938;2022-07-06T13:28:44;7.85;;;7.05;;
8293;SDS011;4185;41.506;24.938;2022-07-06T13:31:11;9.35;;;7.15;;
8293;SDS011;4185;41.506;24.938;2022-07-06T13:33:38;8.48;;;7.13;;
8293;SDS011;4185;41.506;24.938;2022-07-06T13:36:05;7.65;;;6.95;;
8293;SDS011;4185;41.506;24.938;2022-07-06T13:38:37;7.50;;;6.80;;
8293;SDS011;4185;41.506;24.938;2022-07-06T13:41:08;8.63;;;7.80;;
8293;SDS011;4185;41.506;24.938;2022-07-06T13:43:36;9.52;;;7.80;;
8293;SDS011;4185;41.506;24.938;2022-07-06T13:46:04;8.68;;;7.05;;
8293;SDS011;4185;41.506;24.938;2022-07-06T13:48:31;8.40;;;7.57;;
8293;SDS011;4185;41.506;24.938;2022-07-06T13:50:59;10.98;;;7.70;;
8293;SDS011;4185;41.506;24.938;2022-07-06T13:53:26;10.52;;;7.75;;
8293;SDS011;4185;41.506;24.938;2022-07-06T13:55:53;8.35;;;7.55;;
8293;SDS011;4185;41.506;24.938;2022-07-06T13:58:20;9.43;;;8.48;;
8293;SDS011;4185;41.506;24.938;2022-07-06T14:00:49;9.20;;;8.25;;
8293;SDS011;4185;41.506;24.938;2022-07-06T14:03:16;9.85;;;8.00;;
8293;SDS011;4185;41.506;24.938;2022-07-06T14:05:42;10.95;;;8.88;;
8293;SDS011;4185;41.506;24.938;2022-07-06T14:08:09;9.63;;;8.25;;
8293;SDS011;4185;41.506;24.938;2022-07-06T14:10:37;9.63;;;8.07;;
8293;SDS011;4185;41.506;24.938;2022-07-06T14:13:04;10.98;;;8.00;;
8293;SDS011;4185;41.506;24.938;2022-07-06T14:15:31;9.88;;;7.97;;
8293;SDS011;4185;41.506;24.938;2022-07-06T14:18:00;8.88;;;7.95;;
8293;SDS011;4185;41.506;24.938;2022-07-06T14:20:27;9.15;;;8.13;;
8293;SDS011;4185;41.506;24.938;2022-07-06T14:22:54;10.75;;;8.38;;
8293;SDS011;4185;41.506;24.938;2022-07-06T14:25:21;10.38;;;9.15;;
8293;SDS011;4185;41.506;24.938;2022-07-06T14:27:48;10.70;;;8.57;;
8293;SDS011;4185;41.506;24.938;2022-07-06T14:30:15;10.20;;;8.75;;
8293;SDS011;4185;41.506;24.938;2022-07-06T14:32:42;11.18;;;9.90;;
8293;SDS011;4185;41.506;24.938;2022-07-06T14:35:11;11.43;;;10.30;;
8293;SDS011;4185;41.506;24.938;2022-07-06T14:37:38;11.50;;;10.15;;
8293;SDS011;4185;41.506;24.938;2022-07-06T14:40:05;11.45;;;10.20;;
8293;SDS011;4185;41.506;24.938;2022-07-06T14:42:33;13.82;;;10.32;;
8293;SDS011;4185;41.506;24.938;2022-07-06T14:45:00;11.30;;;10.00;;
8293;SDS011;4185;41.506;24.938;2022-07-06T14:47:27;12.30;;;10.18;;
8293;SDS011;4185;41.506;24.938;2022-07-06T14:49:54;13.52;;;10.90;;
8293;SDS011;4185;41.506;24.938;2022-07-06T14:52:22;14.52;;;11.65;;
8293;SDS011;4185;41.506;24.938;2022-07-06T14:54:49;13.43;;;12.02;;
8293;SDS011;4185;41.506;24.938;2022-07-06T14:57:15;13.65;;;10.43;;
8293;SDS011;4185;41.506;24.938;2022-07-06T14:59:42;10.50;;;9.48;;
8293;SDS011;4185;41.506;24.938;2022-07-06T15:02:09;11.02;;;9.93;;
8293;SDS011;4185;41.506;24.938;2022-07-06T15:04:36;11.80;;;9.60;;